Pronóstico
Mapa Interactivo
Aviación
Climatología
Hidrometeorología
Agrometeorología
Estaciones Automáticas
Transparencia
OMM WMO
Portada
Institución
Noticias
Imágenes
Tsunami
Historial
Boletines y Alertas
Contactos
Buscar Contenidos
Informe del Tiempo

SADR31 MDSD 202100Z
METAR

METAR MDPP 202100Z 09016KT 9999 FEW020CB FEW022 31/25 Q1015 CB/SE=
METAR MDST 202100Z 09013KT 9999 FEW025CB SCT027 32/22 Q1014 CB/SE=
METAR MDPC 202100Z 09008KT 9999 FEW025 SCT080 30/23 Q1016 NOSIG=
METAR MDBH 202100Z 13015KT 9999 FEW018CB SCT018 SCT100 BKN300 30/25
Q1016 CB/W/NW=
METAR MDJB 202100Z 18008KT 9999 FEW016CB SCT018 BKN300 29/24 Q1015
CB NE/E/S=
METAR MDSD 202100Z 16008KT 9999 FEW020CB SCT022 SCT300 29/24 Q1015
CB/NW/N=
METAR MDLR 202100Z 15014KT 9999 FEW020CB SCT020 SCT080 31/23 Q1016
CB/SE=
METAR MDCY 202100Z 09012KT 8000 VCSH FEW016CB SCT018 SCT300 30/25
Q1017 CB/NE/S/SW/W=
METAR MDAB 202100Z 09008KT 9999 FEW018CB SCT020 SCT070 30/25 Q1015
CB/SW=